Time;durP1;ratioP1;P1;durP2;ratioP2;P2;SDS_P1;SDS_P2;PMS_P1;PMS_P2;Temp;Humidity;BMP_temperature;BMP_pressure;BME280_temperature;BME280_humidity;BME280_pressure;Samples;Min_cycle;Max_cycle;Signal;HPM_P1;HPM_P2
2023/09/21 00:01:15;;;;;;;4.00;2.55;;;;;;;11.69;100.00;97593.72;6108166;19;19915;-71
2023/09/21 00:03:16;;;;;;;3.90;2.75;;;;;;;11.69;100.00;97596.47;6112994;19;20047;-71
2023/09/21 00:05:23;;;;;;;7.75;3.13;;;;;;;11.66;100.00;97588.19;6115340;19;20237;-71
2023/09/21 00:07:23;;;;;;;4.90;2.85;;;;;;;11.61;100.00;97588.63;6113811;19;20009;-71
2023/09/21 00:09:24;;;;;;;4.65;2.70;;;;;;;11.59;100.00;97585.47;6110613;19;20007;-71
2023/09/21 00:11:24;;;;;;;3.47;2.58;;;;;;;11.54;100.00;97590.25;6114688;19;20006;-71
2023/09/21 00:13:28;;;;;;;4.75;2.72;;;;;;;11.51;100.00;97591.06;6113326;19;20308;-71
2023/09/21 00:15:29;;;;;;;6.78;3.20;;;;;;;11.48;100.00;97580.78;6114074;19;20012;-71
2023/09/21 00:17:30;;;;;;;5.45;2.45;;;;;;;11.49;100.00;97589.88;6114009;19;20006;-71
2023/09/21 00:19:30;;;;;;;3.95;2.47;;;;;;;11.49;100.00;97587.09;6111633;19;20010;-71
2023/09/21 00:21:31;;;;;;;3.20;2.35;;;;;;;11.48;100.00;97580.00;6114069;19;20010;-71
2023/09/21 00:23:31;;;;;;;2.83;2.20;;;;;;;11.44;100.00;97579.25;6113463;19;20014;-71
2023/09/21 00:25:32;;;;;;;9.98;2.83;;;;;;;11.43;100.00;97580.44;6112728;19;20006;-71
2023/09/21 00:27:33;;;;;;;3.92;2.35;;;;;;;11.39;100.00;97579.66;6113351;19;20006;-71
2023/09/21 00:29:35;;;;;;;4.78;2.40;;;;;;;11.38;100.00;97581.63;6112408;19;20433;-71
2023/09/21 00:31:36;;;;;;;3.70;2.47;;;;;;;11.33;100.00;97584.81;6113177;19;20316;-71
2023/09/21 00:33:36;;;;;;;6.55;3.03;;;;;;;11.35;100.00;97589.97;6113290;19;20023;-71
2023/09/21 00:35:39;;;;;;;3.35;2.35;;;;;;;11.36;100.00;97584.03;6113476;19;20007;-71
2023/09/21 00:37:40;;;;;;;;;;;;;;;11.38;100.00;97580.84;6114399;19;20070;-71
2023/09/21 00:39:40;;;;;;;3.38;2.40;;;;;;;11.36;100.00;97572.16;6111832;19;20327;-71
2023/09/21 00:41:40;;;;;;;3.85;2.70;;;;;;;11.35;100.00;97574.16;6112421;19;20482;-71
2023/09/21 00:43:41;;;;;;;4.35;2.55;;;;;;;11.34;100.00;97574.56;6113023;19;20025;-71
2023/09/21 00:45:50;;;;;;;5.10;2.63;;;;;;;11.29;100.00;97564.69;6112352;19;20098;-71
2023/09/21 00:47:52;;;;;;;3.88;2.45;;;;;;;11.26;100.00;97568.28;6110660;19;20041;-72
2023/09/21 00:49:53;;;;;;;4.35;2.65;;;;;;;11.22;100.00;97568.28;6110348;19;20019;-71
2023/09/21 00:51:54;;;;;;;4.05;2.65;;;;;;;11.20;100.00;97562.38;6107954;19;20395;-71
2023/09/21 00:53:56;;;;;;;3.97;2.75;;;;;;;11.18;100.00;97567.53;6110369;19;20438;-71
2023/09/21 00:55:59;;;;;;;3.43;2.33;;;;;;;11.20;100.00;97567.13;6110533;19;20010;-71
2023/09/21 00:58:03;;;;;;;5.60;2.40;;;;;;;11.18;100.00;97555.66;6110683;19;20032;-71
2023/09/21 01:00:10;;;;;;;3.58;2.10;;;;;;;11.17;100.00;97552.13;6108466;19;20006;-71
2023/09/21 01:02:11;;;;;;;4.03;2.58;;;;;;;11.18;100.00;97556.44;6111070;19;20038;-71
2023/09/21 01:04:12;;;;;;;4.32;2.45;;;;;;;11.22;100.00;97553.66;6109109;19;20010;-71
2023/09/21 01:06:14;;;;;;;3.40;2.40;;;;;;;11.27;100.00;97558.78;6110538;19;20007;-71
2023/09/21 01:08:22;;;;;;;5.90;2.40;;;;;;;11.30;100.00;97544.09;6110509;19;20037;-71
2023/09/21 01:10:24;;;;;;;3.40;2.38;;;;;;;11.37;100.00;97541.28;6108855;19;20006;-71
2023/09/21 01:12:27;;;;;;;3.13;2.13;;;;;;;11.43;100.00;97538.91;6109762;19;20074;-71
2023/09/21 01:14:27;;;;;;;3.25;2.22;;;;;;;11.53;100.00;97540.78;6108369;19;20010;-71
2023/09/21 01:16:27;;;;;;;3.25;2.30;;;;;;;11.60;100.00;97537.97;6110146;19;20013;-71
2023/09/21 01:18:28;;;;;;;3.05;2.25;;;;;;;11.65;100.00;97534.75;6109346;19;20078;-71
2023/09/21 01:20:32;;;;;;;3.08;2.20;;;;;;;11.71;100.00;97535.91;6109109;19;20010;-71
2023/09/21 01:22:32;;;;;;;3.28;2.25;;;;;;;11.75;100.00;97530.31;6109367;19;20017;-71
2023/09/21 01:24:33;;;;;;;3.13;2.25;;;;;;;11.81;100.00;97526.72;6109636;19;20011;-71
2023/09/21 01:26:33;;;;;;;3.88;2.17;;;;;;;11.87;100.00;97529.06;6110017;19;20487;-71
2023/09/21 01:28:33;;;;;;;5.00;2.88;;;;;;;11.92;100.00;97526.66;6108803;19;20031;-71
2023/09/21 01:30:37;;;;;;;3.53;2.90;;;;;;;11.97;100.00;97525.41;6109691;19;20011;-71
2023/09/21 01:32:41;;;;;;;3.20;2.30;;;;;;;12.00;100.00;97530.94;6109276;19;20049;-71
2023/09/21 01:34:41;;;;;;;5.38;2.50;;;;;;;12.01;100.00;97528.94;6109975;19;20375;-72
2023/09/21 01:36:43;;;;;;;6.00;2.42;;;;;;;11.98;100.00;97532.53;6110242;19;20017;-71
2023/09/21 01:38:44;;;;;;;3.13;2.30;;;;;;;11.96;100.00;97518.28;6107432;19;20014;-71
2023/09/21 01:40:46;;;;;;;3.42;2.33;;;;;;;11.94;100.00;97521.47;6109645;19;20041;-71
2023/09/21 01:42:48;;;;;;;3.20;2.30;;;;;;;11.94;100.00;97524.25;6109933;19;20011;-71
2023/09/21 01:44:49;;;;;;;2.75;2.25;;;;;;;11.93;100.00;97516.34;6109049;19;20018;-71
2023/09/21 01:46:50;;;;;;;4.43;2.60;;;;;;;11.88;100.00;97514.81;6108591;19;20010;-71
2023/09/21 01:48:51;;;;;;;3.28;2.50;;;;;;;11.86;100.00;97508.88;6106612;19;20072;-71
2023/09/21 01:50:57;;;;;;;4.13;2.70;;;;;;;11.85;100.00;97515.63;6107998;19;20018;-71
2023/09/21 01:52:57;;;;;;;5.78;2.30;;;;;;;11.83;100.00;97504.16;6111340;19;20013;-71
2023/09/21 01:54:59;;;;;;;3.38;2.65;;;;;;;11.92;100.00;97507.25;6110249;19;20459;-71
2023/09/21 01:57:00;;;;;;;4.85;3.05;;;;;;;12.04;100.00;97506.72;6110882;19;20007;-71
2023/09/21 01:59:00;;;;;;;3.33;2.55;;;;;;;12.21;100.00;97493.88;6109731;19;20086;-72
2023/09/21 02:01:01;;;;;;;3.67;2.63;;;;;;;12.36;100.00;97508.38;6110906;19;20017;-71
2023/09/21 02:03:04;;;;;;;8.25;3.00;;;;;;;12.46;100.00;97504.69;6111176;19;20098;-72
2023/09/21 02:05:05;;;;;;;3.30;2.58;;;;;;;12.55;100.00;97510.53;6111790;19;20039;-71
2023/09/21 02:07:05;;;;;;;5.80;2.70;;;;;;;12.51;100.00;97506.25;6110148;19;20007;-71
2023/09/21 02:09:05;;;;;;;4.05;2.30;;;;;;;12.44;100.00;97509.09;6108030;19;20097;-71
2023/09/21 02:11:06;;;;;;;3.70;2.75;;;;;;;12.37;100.00;97498.84;6111375;19;20077;-72
2023/09/21 02:13:07;;;;;;;5.90;3.00;;;;;;;12.30;100.00;97498.94;6110118;19;20038;-71
2023/09/21 02:15:12;;;;;;;4.28;2.83;;;;;;;12.23;100.00;97499.00;6111133;19;20480;-71
2023/09/21 02:17:12;;;;;;;5.68;2.80;;;;;;;12.12;100.00;97493.59;6110525;19;20314;-71
2023/09/21 02:19:14;;;;;;;6.22;3.22;;;;;;;12.05;100.00;97490.88;6108535;19;20415;-71
2023/09/21 02:21:19;;;;;;;12.75;2.95;;;;;;;12.02;100.00;97500.03;6110788;19;20133;-71
2023/09/21 02:23:21;;;;;;;4.82;3.00;;;;;;;11.97;100.00;97490.16;6110307;19;20007;-71
2023/09/21 02:25:22;;;;;;;3.95;2.90;;;;;;;11.92;100.00;97482.31;6108930;19;20027;-71
2023/09/21 02:27:22;;;;;;;4.90;2.75;;;;;;;11.90;100.00;97478.34;6109681;19;20469;-71
2023/09/21 02:29:23;;;;;;;4.45;2.80;;;;;;;11.85;100.00;97478.81;6108842;19;20002;-71
2023/09/21 02:31:23;;;;;;;5.18;3.15;;;;;;;11.79;100.00;97487.53;6109810;19;20003;-71
2023/09/21 02:33:23;;;;;;;4.28;3.10;;;;;;;11.77;100.00;97475.28;6110023;19;20006;-71
2023/09/21 02:35:27;;;;;;;4.38;2.97;;;;;;;11.77;100.00;97476.06;6110134;19;20215;-71
2023/09/21 02:37:28;;;;;;;5.03;3.35;;;;;;;11.75;100.00;97478.47;6109662;19;20003;-71
2023/09/21 02:39:28;;;;;;;3.10;2.53;;;;;;;11.73;100.00;97477.28;6108583;19;20312;-71
2023/09/21 02:41:28;;;;;;;3.70;3.15;;;;;;;11.70;100.00;97473.38;6109327;19;20013;-72
2023/09/21 02:43:29;;;;;;;4.35;2.97;;;;;;;11.68;100.00;97475.75;6110325;19;20003;-71
2023/09/21 02:45:29;;;;;;;3.25;2.90;;;;;;;11.66;100.00;97469.03;6109479;19;20006;-71
2023/09/21 02:47:30;;;;;;;3.80;2.92;;;;;;;11.63;100.00;97467.88;6106982;19;20011;-71
2023/09/21 02:49:31;;;;;;;5.07;2.97;;;;;;;11.62;100.00;97462.75;6108238;19;20003;-71
2023/09/21 02:51:32;;;;;;;5.30;2.97;;;;;;;11.60;100.00;97474.25;6109645;19;20029;-71
2023/09/21 02:53:32;;;;;;;4.70;3.03;;;;;;;11.57;100.00;97466.75;6108775;19;20596;-71
2023/09/21 02:55:34;;;;;;;4.93;3.17;;;;;;;11.55;100.00;97460.84;6109268;19;20011;-71
2023/09/21 02:57:35;;;;;;;6.38;2.70;;;;;;;11.55;100.00;97463.59;6110083;19;20257;-71
2023/09/21 02:59:35;;;;;;;5.97;2.97;;;;;;;11.52;100.00;97461.66;6107649;19;20011;-71
2023/09/21 03:01:35;;;;;;;5.80;3.00;;;;;;;11.51;100.00;97460.09;6109086;19;20017;-71
2023/09/21 03:03:36;;;;;;;6.03;3.63;;;;;;;11.50;100.00;97459.31;6108700;19;20025;-71
2023/09/21 03:05:38;;;;;;;4.45;3.05;;;;;;;11.51;100.00;97458.09;6109112;19;20007;-71
2023/09/21 03:07:43;;;;;;;6.18;2.85;;;;;;;11.50;100.00;97458.50;6108480;19;20341;-71
2023/09/21 03:09:43;;;;;;;3.60;2.40;;;;;;;11.52;100.00;97458.88;6107370;19;20254;-71
2023/09/21 03:11:45;;;;;;;2.97;2.53;;;;;;;11.48;100.00;97461.66;6108879;19;20021;-71
2023/09/21 03:13:45;;;;;;;5.25;2.90;;;;;;;11.48;100.00;97455.34;6108846;19;20017;-71
2023/09/21 03:15:50;;;;;;;3.70;2.83;;;;;;;11.51;100.00;97462.84;6108198;19;20018;-71
2023/09/21 03:17:52;;;;;;;3.80;2.80;;;;;;;11.49;100.00;97449.41;6108717;19;20011;-71
2023/09/21 03:19:55;;;;;;;3.25;2.83;;;;;;;11.46;100.00;97450.22;6106707;19;20043;-71
2023/09/21 03:21:55;;;;;;;4.15;2.95;;;;;;;11.46;100.00;97458.53;6108169;19;20017;-71
2023/09/21 03:23:55;;;;;;;4.05;3.08;;;;;;;11.44;100.00;97446.28;6109064;19;20397;-71
2023/09/21 03:25:57;;;;;;;5.10;2.28;;;;;;;11.48;100.00;97452.59;6107748;19;20011;-71
2023/09/21 03:28:02;;;;;;;4.20;2.97;;;;;;;11.46;100.00;97450.22;6108279;19;20338;-71
2023/09/21 03:30:05;;;;;;;5.28;3.08;;;;;;;11.46;100.00;97441.91;6106325;19;20791;-71
2023/09/21 03:32:05;;;;;;;;;;;;;;;11.49;100.00;97448.59;6110033;19;20355;-72
2023/09/21 03:34:06;;;;;;;4.90;2.90;;;;;;;11.45;100.00;97445.09;6108977;19;19914;-71
2023/09/21 03:36:13;;;;;;;4.28;3.25;;;;;;;11.43;100.00;97448.28;6107901;19;20006;-71
2023/09/21 03:38:14;;;;;;;3.58;3.00;;;;;;;11.41;100.00;97447.88;6112314;19;20006;-71
2023/09/21 03:40:15;;;;;;;3.97;3.00;;;;;;;11.40;100.00;97448.28;6114237;19;20482;-71
2023/09/21 03:42:15;;;;;;;3.60;3.13;;;;;;;11.38;100.00;97445.16;6114092;19;20006;-71
2023/09/21 03:44:15;;;;;;;4.30;2.97;;;;;;;11.33;100.00;97438.06;6113741;19;20016;-71
2023/09/21 03:46:16;;;;;;;4.03;3.00;;;;;;;11.31;100.00;97446.00;6115175;19;20446;-72
2023/09/21 03:48:18;;;;;;;3.60;2.47;;;;;;;11.28;100.00;97443.25;6111917;19;20034;-71
2023/09/21 03:50:19;;;;;;;4.25;2.60;;;;;;;11.27;100.00;97439.72;6112239;19;20029;-71
2023/09/21 03:52:19;;;;;;;3.50;2.90;;;;;;;11.32;100.00;97439.25;6114453;19;20004;-71
2023/09/21 03:54:19;;;;;;;4.05;2.88;;;;;;;11.33;100.00;97435.28;6113328;19;20003;-71
2023/09/21 03:56:20;;;;;;;5.00;3.30;;;;;;;11.29;100.00;97431.78;6114335;19;20019;-71
2023/09/21 03:58:20;;;;;;;4.50;3.30;;;;;;;11.31;100.00;97445.22;6114003;19;20026;-72
2023/09/21 04:02:34;;;;;;;4.78;3.25;;;;;;;11.30;100.00;97435.31;6113404;19;20007;-71
2023/09/21 04:04:36;;;;;;;4.65;3.83;;;;;;;11.30;100.00;97427.81;6112389;19;20034;-71
2023/09/21 04:06:36;;;;;;;5.30;3.55;;;;;;;11.33;100.00;97428.97;6114090;19;20016;-71
2023/09/21 04:08:36;;;;;;;5.82;3.63;;;;;;;11.35;100.00;97430.16;6113154;19;20011;-71
2023/09/21 04:10:37;;;;;;;7.75;3.90;;;;;;;11.34;100.00;97428.59;6111726;19;20017;-72
2023/09/21 04:12:39;;;;;;;8.75;3.75;;;;;;;11.37;100.00;97426.97;6113952;19;20010;-71
2023/09/21 04:14:45;;;;;;;5.93;3.97;;;;;;;11.37;100.00;97432.50;6113844;19;20007;-71
2023/09/21 04:16:46;;;;;;;4.55;3.50;;;;;;;11.36;100.00;97428.16;6112563;19;20377;-71
2023/09/21 04:18:46;;;;;;;5.57;3.50;;;;;;;11.37;100.00;97427.75;6111424;19;20025;-71
2023/09/21 04:20:46;;;;;;;5.15;3.05;;;;;;;11.37;100.00;97422.22;6111055;19;20002;-71
2023/09/21 04:22:49;;;;;;;5.65;3.33;;;;;;;11.34;100.00;97423.03;6113393;19;20022;-71
2023/09/21 04:24:49;;;;;;;;;;;;;;;11.34;100.00;97423.03;6113334;19;20496;-71
2023/09/21 04:26:49;;;;;;;4.30;3.20;;;;;;;11.31;100.00;97418.31;6112632;19;19919;-71
2023/09/21 04:28:50;;;;;;;4.90;3.00;;;;;;;11.23;100.00;97420.34;6110624;19;20021;-71
2023/09/21 04:30:50;;;;;;;3.53;3.22;;;;;;;11.22;100.00;97421.53;6113585;19;20281;-71
2023/09/21 04:32:53;;;;;;;6.07;3.60;;;;;;;11.20;100.00;97421.16;6112816;19;20030;-71
2023/09/21 04:34:54;;;;;;;8.43;4.10;;;;;;;11.19;100.00;97419.59;6112031;19;20030;-72
2023/09/21 04:36:54;;;;;;;6.55;3.65;;;;;;;11.21;100.00;97414.44;6113853;19;20079;-71
2023/09/21 04:38:54;;;;;;;4.57;3.80;;;;;;;11.27;100.00;97412.03;6110287;19;20106;-71
2023/09/21 04:40:56;;;;;;;6.20;3.85;;;;;;;11.32;100.00;97417.09;6112599;19;20017;-71
2023/09/21 04:42:56;;;;;;;5.97;3.65;;;;;;;11.34;100.00;97425.81;6113138;19;20010;-71
2023/09/21 04:44:58;;;;;;;5.00;3.47;;;;;;;11.36;100.00;97425.41;6111726;19;20374;-71
2023/09/21 04:46:58;;;;;;;6.45;3.63;;;;;;;11.33;100.00;97409.56;6110254;19;20003;-71
2023/09/21 04:48:59;;;;;;;6.57;4.15;;;;;;;11.34;100.00;97405.63;6109347;19;20025;-71
2023/09/21 04:50:59;;;;;;;3.85;3.30;;;;;;;11.34;100.00;97398.13;6106910;19;20009;-71
2023/09/21 04:53:00;;;;;;;7.60;3.42;;;;;;;11.31;100.00;97400.91;6112144;19;20009;-71
2023/09/21 04:55:01;;;;;;;4.40;3.28;;;;;;;11.26;100.00;97402.16;6111193;19;20019;-71
2023/09/21 04:57:02;;;;;;;8.25;3.65;;;;;;;11.26;100.00;97410.44;6111339;19;20002;-72
2023/09/21 04:59:03;;;;;;;8.02;3.50;;;;;;;11.24;100.00;97397.00;6109863;19;20362;-72
2023/09/21 05:01:09;;;;;;;5.93;3.45;;;;;;;11.25;100.00;97395.81;6111214;19;20101;-72
2023/09/21 05:03:10;;;;;;;10.77;3.45;;;;;;;11.31;100.00;97392.59;6110915;19;20007;-71
2023/09/21 05:05:10;;;;;;;7.40;3.17;;;;;;;11.30;100.00;97393.78;6111596;19;20007;-71
2023/09/21 05:07:13;;;;;;;6.13;3.42;;;;;;;11.30;100.00;97397.34;6111849;19;20037;-71
2023/09/21 05:09:15;;;;;;;3.85;3.17;;;;;;;11.31;100.00;97390.59;6110814;19;20021;-71
2023/09/21 05:11:15;;;;;;;6.40;3.20;;;;;;;11.33;100.00;97387.44;6110546;19;20410;-71
2023/09/21 05:13:16;;;;;;;6.00;3.30;;;;;;;11.33;100.00;97387.44;6111360;19;20028;-71
2023/09/21 05:15:17;;;;;;;7.40;3.97;;;;;;;11.35;100.00;97391.38;6112803;19;20017;-72
2023/09/21 05:17:18;;;;;;;7.00;3.30;;;;;;;11.40;100.00;97387.38;6111127;19;20486;-71
2023/09/21 05:19:19;;;;;;;6.03;3.50;;;;;;;11.42;100.00;97387.72;6109800;19;20022;-71
2023/09/21 05:21:19;;;;;;;8.15;3.22;;;;;;;11.44;100.00;97382.59;6112580;19;20339;-71
2023/09/21 05:23:19;;;;;;;3.67;2.72;;;;;;;11.48;100.00;97389.66;6111817;19;20353;-72
2023/09/21 05:25:20;;;;;;;3.92;2.97;;;;;;;11.51;100.00;97382.53;6112008;19;20007;-71
2023/09/21 05:27:21;;;;;;;4.97;3.40;;;;;;;11.53;100.00;97377.34;6111069;19;20011;-71
2023/09/21 05:29:22;;;;;;;6.53;3.22;;;;;;;11.53;100.00;97383.69;6110380;19;20045;-71
2023/09/21 05:31:23;;;;;;;6.25;3.05;;;;;;;11.57;100.00;97388.41;6112187;19;20375;-71
2023/09/21 05:33:23;;;;;;;3.80;2.72;;;;;;;11.56;100.00;97381.28;6110649;19;20022;-71
2023/09/21 05:35:23;;;;;;;3.58;2.63;;;;;;;11.58;100.00;97379.66;6111112;19;20010;-71
2023/09/21 05:37:24;;;;;;;3.55;2.50;;;;;;;11.56;100.00;97368.22;6111510;19;20019;-72
2023/09/21 05:39:24;;;;;;;6.25;3.00;;;;;;;11.59;100.00;97383.25;6109671;19;20002;-71
2023/09/21 05:41:25;;;;;;;3.17;2.75;;;;;;;11.61;100.00;97376.09;6111623;19;20006;-71
2023/09/21 05:43:25;;;;;;;4.03;3.00;;;;;;;11.63;100.00;97370.91;6111222;19;20014;-71
2023/09/21 05:45:26;;;;;;;4.45;2.80;;;;;;;11.68;100.00;97376.03;6110991;19;20339;-71
2023/09/21 05:47:26;;;;;;;3.90;2.88;;;;;;;11.70;100.00;97370.84;6108114;19;19995;-72
2023/09/21 05:49:27;;;;;;;4.35;3.40;;;;;;;11.71;100.00;97366.88;6109215;19;20454;-71
2023/09/21 05:51:28;;;;;;;3.75;3.38;;;;;;;11.72;100.00;97362.91;6108000;19;19999;-72
2023/09/21 05:53:30;;;;;;;3.58;3.00;;;;;;;11.71;100.00;97366.88;6109292;19;20006;-72
2023/09/21 05:55:30;;;;;;;5.32;3.60;;;;;;;11.73;100.00;97358.16;6109333;19;20003;-71
2023/09/21 05:57:31;;;;;;;3.95;2.90;;;;;;;11.72;100.00;97365.66;6108690;19;20007;-72
2023/09/21 05:59:31;;;;;;;6.97;3.15;;;;;;;11.76;100.00;97360.09;6106276;19;20042;-71
2023/09/21 06:01:32;;;;;;;3.85;2.83;;;;;;;11.78;100.00;97354.94;6107388;19;20006;-72
2023/09/21 06:03:35;;;;;;;4.72;3.08;;;;;;;11.82;100.00;97358.47;6109965;19;20003;-71
2023/09/21 06:05:36;;;;;;;4.57;3.05;;;;;;;11.88;100.00;97364.34;6106607;19;20013;-71
2023/09/21 06:07:36;;;;;;;4.50;3.50;;;;;;;11.96;100.00;97363.06;6106647;19;20082;-71
2023/09/21 06:09:36;;;;;;;5.57;3.55;;;;;;;12.02;100.00;97359.44;6108368;19;20002;-71
2023/09/21 06:11:37;;;;;;;5.55;3.50;;;;;;;12.11;100.00;97364.47;6108029;19;20067;-71
2023/09/21 06:13:37;;;;;;;5.55;3.30;;;;;;;12.17;100.00;97360.03;6108521;19;20007;-72
2023/09/21 06:15:48;;;;;;;4.43;3.70;;;;;;;12.27;100.00;97370.22;6107768;19;20010;-71
2023/09/21 06:17:48;;;;;;;4.63;2.83;;;;;;;12.36;100.00;97362.16;6107619;19;20005;-71
2023/09/21 06:19:48;;;;;;;3.67;2.88;;;;;;;12.44;100.00;97357.31;6106693;19;20006;-71
2023/09/21 06:21:56;;;;;;;3.67;3.15;;;;;;;12.59;100.00;97360.66;6108535;19;20023;-71
2023/09/21 06:23:57;;;;;;;4.03;3.45;;;;;;;12.69;100.00;97361.72;6108256;19;20030;-71
2023/09/21 06:25:59;;;;;;;4.82;3.00;;;;;;;12.79;100.00;97353.22;6108071;19;20030;-71
2023/09/21 06:27:59;;;;;;;3.80;3.35;;;;;;;12.91;100.00;97352.66;6108492;19;20030;-71
2023/09/21 06:29:59;;;;;;;7.07;3.40;;;;;;;13.07;100.00;97357.53;6106623;19;20015;-72
2023/09/21 06:32:00;;;;;;;5.30;3.63;;;;;;;13.18;100.00;97357.38;6107636;19;20002;-71
2023/09/21 06:34:01;;;;;;;3.97;3.30;;;;;;;13.30;100.00;97356.78;6107425;19;20098;-72
2023/09/21 06:36:01;;;;;;;5.00;3.70;;;;;;;13.40;100.00;97357.81;6108033;19;20253;-72
2023/09/21 06:38:02;;;;;;;4.35;3.33;;;;;;;13.48;100.00;97351.69;6107631;19;20002;-72
2023/09/21 06:40:06;;;;;;;4.88;3.45;;;;;;;13.62;100.00;97349.88;6105955;19;20003;-71
2023/09/21 06:42:07;;;;;;;4.60;3.45;;;;;;;13.74;100.00;97349.25;6106883;19;20070;-72
2023/09/21 06:44:07;;;;;;;4.47;3.28;;;;;;;13.85;100.00;97337.94;6108051;19;20025;-71
2023/09/21 06:46:09;;;;;;;5.47;3.22;;;;;;;13.98;100.00;97345.22;6106887;19;20442;-71
2023/09/21 06:48:11;;;;;;;5.00;3.58;;;;;;;14.10;100.00;97340.97;6103594;19;20082;-72
2023/09/21 06:50:11;;;;;;;4.88;3.08;;;;;;;14.21;100.00;97327.63;6105081;19;20026;-72
2023/09/21 06:52:13;;;;;;;4.43;3.65;;;;;;;14.32;100.00;97336.53;6107050;19;20021;-71
2023/09/21 06:54:13;;;;;;;6.57;3.97;;;;;;;14.48;100.00;97329.47;6108139;19;20003;-72
2023/09/21 06:56:13;;;;;;;5.22;3.40;;;;;;;14.58;100.00;97322.88;6106699;19;20496;-72
2023/09/21 06:58:14;;;;;;;11.50;4.00;;;;;;;14.74;100.00;97330.47;6108564;19;20007;-71
2023/09/21 07:00:14;;;;;;;6.15;3.80;;;;;;;14.89;100.00;97326.94;6107193;19;20011;-71
2023/09/21 07:02:15;;;;;;;6.20;3.63;;;;;;;15.06;100.00;97332.47;6108662;19;20031;-72
2023/09/21 07:04:17;;;;;;;6.80;3.58;;;;;;;15.17;100.00;97331.00;6108682;19;20074;-72
2023/09/21 07:06:19;;;;;;;4.60;3.88;;;;;;;15.32;100.00;97339.00;6108912;19;20026;-71
2023/09/21 07:08:20;;;;;;;5.78;3.53;;;;;;;15.49;100.00;97348.91;6109093;19;20430;-71
2023/09/21 07:10:20;;;;;;;8.00;4.10;;;;;;;15.63;100.00;97347.78;6108042;19;20003;-72
2023/09/21 07:12:24;;;;;;;9.07;3.72;;;;;;;15.78;100.00;97346.16;6106185;19;20071;-72
2023/09/21 07:14:24;;;;;;;4.40;3.53;;;;;;;15.89;100.00;97334.75;6109948;19;20545;-72
2023/09/21 07:16:24;;;;;;;6.95;3.15;;;;;;;15.98;100.00;97332.09;6109053;19;19999;-71
2023/09/21 07:18:25;;;;;;;8.13;3.42;;;;;;;16.11;100.00;97330.09;6107850;19;20061;-72
2023/09/21 07:20:26;;;;;;;6.32;3.33;;;;;;;16.26;100.00;97327.69;6108754;19;21179;-72
2023/09/21 07:22:26;;;;;;;5.25;3.35;;;;;;;16.40;100.00;97329.28;6109341;19;20011;-72
2023/09/21 07:24:28;;;;;;;5.95;3.40;;;;;;;16.51;100.00;97318.56;6107745;19;20347;-72
2023/09/21 07:26:30;;;;;;;4.50;3.05;;;;;;;16.62;100.00;97323.81;6109063;19;20070;-72
2023/09/21 07:28:30;;;;;;;5.72;3.22;;;;;;;16.71;100.00;97323.94;6108984;19;20017;-72
2023/09/21 07:30:32;;;;;;;4.20;3.15;;;;;;;16.79;100.00;97325.28;6106002;19;20010;-72
2023/09/21 07:32:33;;;;;;;5.05;3.05;;;;;;;16.84;100.00;97331.09;6108616;19;20419;-72
2023/09/21 07:34:34;;;;;;;7.55;3.20;;;;;;;16.90;100.00;97336.16;6109152;19;20002;-72
2023/09/21 07:36:36;;;;;;;4.90;2.70;;;;;;;16.93;100.00;97338.03;6110097;19;20027;-72
2023/09/21 07:38:36;;;;;;;4.68;2.63;;;;;;;16.93;100.00;97327.63;6108182;19;20006;-72
2023/09/21 07:40:36;;;;;;;3.95;3.10;;;;;;;16.97;100.00;97321.94;6107515;19;20332;-72
2023/09/21 07:42:37;;;;;;;8.85;3.45;;;;;;;17.02;100.00;97329.75;6108059;19;20090;-72
2023/09/21 07:44:38;;;;;;;8.65;3.25;;;;;;;17.10;100.00;97333.88;6109074;19;20011;-72
2023/09/21 07:46:39;;;;;;;5.30;3.07;;;;;;;17.16;100.00;97337.69;6109445;19;20034;-72
2023/09/21 07:48:40;;;;;;;6.38;3.45;;;;;;;17.23;100.00;97329.06;6105969;19;20006;-72
2023/09/21 07:50:41;;;;;;;5.13;2.60;;;;;;;17.32;100.00;97328.38;6107950;19;20446;-72
2023/09/21 07:52:41;;;;;;;3.67;2.70;;;;;;;17.34;100.00;97337.84;6108808;19;20007;-72
2023/09/21 07:54:41;;;;;;;7.40;2.80;;;;;;;17.41;100.00;97343.22;6108624;19;20014;-72
2023/09/21 07:56:42;;;;;;;5.03;2.72;;;;;;;17.39;100.00;97326.13;6106799;19;20009;-72
2023/09/21 07:58:42;;;;;;;4.05;2.50;;;;;;;17.42;100.00;97325.19;6107205;19;20002;-72
2023/09/21 08:00:43;;;;;;;4.50;2.92;;;;;;;17.49;100.00;97334.59;6108401;19;20002;-72
2023/09/21 08:02:43;;;;;;;4.13;2.45;;;;;;;17.51;100.00;97327.31;6107824;19;20006;-72
2023/09/21 08:04:44;;;;;;;5.93;2.80;;;;;;;17.52;100.00;97320.47;6108823;19;20027;-72
2023/09/21 08:06:44;;;;;;;3.63;2.50;;;;;;;17.61;100.00;97331.72;6108631;19;20010;-72
2023/09/21 08:08:46;;;;;;;3.10;2.42;;;;;;;17.67;100.00;97327.13;6106653;19;20006;-72
2023/09/21 08:10:47;;;;;;;8.27;2.87;;;;;;;17.73;100.00;97327.38;6108517;19;20006;-72
2023/09/21 08:12:48;;;;;;;3.53;2.38;;;;;;;17.77;100.00;97336.41;6107637;19;20352;-72
2023/09/21 08:14:49;;;;;;;5.22;2.65;;;;;;;17.77;100.00;97330.81;6107946;19;20014;-72
2023/09/21 08:16:52;;;;;;;4.07;2.60;;;;;;;17.79;100.00;97336.75;6108144;19;20014;-71
2023/09/21 08:18:52;;;;;;;4.90;2.80;;;;;;;17.83;100.00;97334.59;6106571;19;20086;-72
2023/09/21 08:20:52;;;;;;;3.17;2.13;;;;;;;17.87;100.00;97326.06;6107473;19;20023;-72
2023/09/21 08:22:53;;;;;;;2.78;2.30;;;;;;;17.92;100.00;97333.88;6108594;19;20382;-72
2023/09/21 08:24:54;;;;;;;7.65;4.78;;;;;;;17.97;100.00;97327.72;6113258;19;20007;-72
2023/09/21 08:26:54;;;;;;;14.15;8.32;;;;;;;18.07;100.00;97322.97;6112579;19;20006;-72
2023/09/21 08:28:54;;;;;;;14.18;8.15;;;;;;;18.14;100.00;97334.69;6112550;19;20003;-72
2023/09/21 08:30:57;;;;;;;12.18;8.88;;;;;;;18.27;100.00;97326.19;6113400;19;20546;-72
2023/09/21 08:32:58;;;;;;;23.05;15.05;;;;;;;18.35;100.00;97327.50;6114049;19;20042;-72
2023/09/21 08:34:58;;;;;;;44.95;31.58;;;;;;;18.40;100.00;97328.94;6111866;19;20026;-72
2023/09/21 08:37:00;;;;;;;42.88;32.50;;;;;;;18.43;100.00;97323.19;6113618;19;20002;-72
2023/09/21 08:39:02;;;;;;;26.88;20.60;;;;;;;18.47;100.00;97321.03;6111249;19;20011;-72
2023/09/21 08:41:03;;;;;;;10.93;8.45;;;;;;;18.50;100.00;97325.72;6113002;19;20014;-72
2023/09/21 08:43:04;;;;;;;7.47;4.80;;;;;;;18.50;100.00;97319.31;6113569;19;20010;-72
2023/09/21 08:45:09;;;;;;;5.72;4.10;;;;;;;18.51;100.00;97324.47;6112658;19;20006;-72
2023/09/21 08:47:16;;;;;;;5.38;3.92;;;;;;;18.56;100.00;97322.31;6110523;19;20026;-72
2023/09/21 08:49:21;;;;;;;4.82;3.20;;;;;;;18.60;100.00;97328.56;6111262;19;20533;-72
2023/09/21 08:51:23;;;;;;;5.55;3.70;;;;;;;18.65;100.00;97327.97;6112607;19;20010;-72
2023/09/21 08:53:25;;;;;;;5.78;4.22;;;;;;;18.69;100.00;97315.38;6112792;19;20006;-72
2023/09/21 08:55:25;;;;;;;6.05;3.28;;;;;;;18.74;100.00;97323.22;6111863;19;20086;-72
2023/09/21 08:57:26;;;;;;;6.05;3.05;;;;;;;18.83;100.00;97311.25;6112445;19;20010;-72
2023/09/21 08:59:28;;;;;;;7.15;3.70;;;;;;;18.90;100.00;97305.38;6109961;19;20336;-72
2023/09/21 09:01:28;;;;;;;16.13;3.78;;;;;;;18.99;100.00;97299.78;6112604;19;20007;-72
2023/09/21 09:03:29;;;;;;;7.70;3.15;;;;;;;19.09;100.00;97294.97;6112692;19;20007;-72
2023/09/21 09:05:30;;;;;;;6.65;2.92;;;;;;;19.23;100.00;97297.19;6112380;19;20013;-72
2023/09/21 09:07:32;;;;;;;4.57;2.40;;;;;;;19.34;100.00;97294.72;6112007;19;20331;-72
2023/09/21 09:09:32;;;;;;;3.20;2.40;;;;;;;19.48;100.00;97293.34;6109931;19;20450;-72
2023/09/21 09:11:40;;;;;;;10.45;2.80;;;;;;;19.64;100.00;97290.25;6111863;19;20007;-72
2023/09/21 09:13:47;;;;;;;4.80;2.35;;;;;;;19.78;100.00;97279.66;6111842;19;20013;-72
2023/09/21 09:15:48;;;;;;;8.98;2.42;;;;;;;19.91;100.00;97288.69;6112501;19;20002;-72
2023/09/21 09:17:49;;;;;;;4.30;2.00;;;;;;;19.99;100.00;97286.34;6111587;19;20474;-72
2023/09/21 09:19:50;;;;;;;4.50;2.55;;;;;;;20.05;100.00;97274.00;6111635;19;20315;-72
2023/09/21 09:21:52;;;;;;;7.75;2.42;;;;;;;20.10;100.00;97283.81;6111949;19;20111;-72
2023/09/21 09:23:52;;;;;;;3.53;1.98;;;;;;;20.08;100.00;97272.28;6112334;19;20397;-72
2023/09/21 09:25:54;;;;;;;5.85;2.15;;;;;;;20.10;100.00;97269.78;6110799;19;20007;-72